Time;durP1;ratioP1;P1;durP2;ratioP2;P2;SDS_P1;SDS_P2;PMS_P1;PMS_P2;Temp;Humidity;BMP_temperature;BMP_pressure;BME280_temperature;BME280_humidity;BME280_pressure;Samples;Min_cycle;Max_cycle;Signal;HPM_P1;HPM_P2
2023/09/21 00:00:39;;;;;;;;;;;22.70;56.10;;;;;;5076787;28;19924;-59
2023/09/21 00:03:07;;;;;;;;;;;22.70;56.00;;;;;;5090954;28;19924;-59
2023/09/21 00:05:33;;;;;;;;;;;22.70;56.10;;;;;;5077367;28;19988;-59
2023/09/21 00:08:00;;;;;;;;;;;22.70;56.10;;;;;;5089135;28;19970;-59
2023/09/21 00:10:31;;;;;;;;;;;22.70;56.60;;;;;;5082963;28;19994;-59
2023/09/21 00:12:58;;;;;;;;;;;22.70;56.00;;;;;;5077737;28;19931;-59
2023/09/21 00:15:27;;;;;;;;;;;22.70;56.00;;;;;;5084221;28;19924;-59
2023/09/21 00:17:55;;;;;;;;;;;22.70;56.00;;;;;;5100201;28;19955;-59
2023/09/21 00:20:23;;;;;;;;;;;22.70;56.00;;;;;;5071585;28;19924;-59
2023/09/21 00:22:50;;;;;;;;;;;22.70;56.10;;;;;;5089464;28;20434;-59
2023/09/21 00:25:17;;;;;;;;;;;22.70;56.00;;;;;;5100722;28;20286;-59
2023/09/21 00:27:44;;;;;;;;;;;22.70;56.00;;;;;;5075087;28;19969;-59
2023/09/21 00:30:11;;;;;;;;;;;22.70;56.00;;;;;;5073078;28;20371;-60
2023/09/21 00:32:40;;;;;;;;;;;22.70;56.00;;;;;;5088965;28;19928;-59
2023/09/21 00:35:09;;;;;;;;;;;22.70;56.00;;;;;;5078378;28;20385;-60
2023/09/21 00:37:36;;;;;;;;;;;22.70;56.00;;;;;;5074898;28;19964;-59
2023/09/21 00:40:13;;;;;;;;;;;22.70;56.00;;;;;;5074998;28;19928;-59
2023/09/21 00:42:40;;;;;;;;;;;22.70;56.00;;;;;;5080683;28;19928;-60
2023/09/21 00:45:08;;;;;;;;;;;22.70;56.00;;;;;;5073881;28;19973;-60
2023/09/21 00:47:35;;;;;;;;;;;22.70;56.00;;;;;;5095222;28;19925;-59
2023/09/21 00:50:08;;;;;;;;;;;22.70;55.90;;;;;;5099222;28;20325;-60
2023/09/21 00:52:35;;;;;;;;;;;22.70;56.00;;;;;;5084763;28;19924;-59
2023/09/21 00:55:02;;;;;;;;;;;22.70;55.90;;;;;;5076725;28;19947;-60
2023/09/21 00:57:29;;;;;;;;;;;22.70;56.00;;;;;;5090542;28;19931;-60
2023/09/21 00:59:57;;;;;;;;;;;22.70;55.90;;;;;;5079667;28;19962;-60
2023/09/21 01:02:23;;;;;;;;;;;22.70;55.90;;;;;;5061698;28;19935;-59
2023/09/21 01:04:52;;;;;;;;;;;22.70;55.90;;;;;;5066173;28;19924;-60
2023/09/21 01:07:22;;;;;;;;;;;22.70;55.90;;;;;;5061580;28;19928;-60
2023/09/21 01:09:49;;;;;;;;;;;22.70;55.90;;;;;;5073514;28;19977;-60
2023/09/21 01:12:17;;;;;;;;;;;22.70;55.90;;;;;;5054670;28;19925;-60
2023/09/21 01:14:44;;;;;;;;;;;22.70;55.90;;;;;;5090612;28;19935;-60
2023/09/21 01:17:12;;;;;;;;;;;22.60;55.80;;;;;;5079901;28;19924;-60
2023/09/21 01:19:39;;;;;;;;;;;22.70;55.80;;;;;;5086648;28;19924;-59
2023/09/21 01:22:08;;;;;;;;;;;22.70;55.90;;;;;;5086621;28;20253;-60
2023/09/21 01:24:38;;;;;;;;;;;22.60;55.80;;;;;;5058199;28;19932;-59
2023/09/21 01:27:04;;;;;;;;;;;22.70;55.80;;;;;;5078015;28;19989;-59
2023/09/21 01:29:32;;;;;;;;;;;22.70;55.80;;;;;;5082686;28;20474;-60
2023/09/21 01:31:58;;;;;;;;;;;22.70;55.80;;;;;;5078992;28;19932;-60
2023/09/21 01:34:25;;;;;;;;;;;22.60;55.80;;;;;;5070282;28;19924;-60
2023/09/21 01:36:54;;;;;;;;;;;22.70;55.80;;;;;;5052877;28;19971;-60
2023/09/21 01:39:21;;;;;;;;;;;22.70;55.80;;;;;;5082332;28;19966;-60
2023/09/21 01:41:53;;;;;;;;;;;22.70;55.80;;;;;;5089139;28;19977;-59
2023/09/21 01:44:21;;;;;;;;;;;22.60;55.70;;;;;;5066180;28;19931;-60
2023/09/21 01:46:48;;;;;;;;;;;22.60;55.70;;;;;;5065069;28;19928;-60
2023/09/21 01:49:15;;;;;;;;;;;22.60;55.70;;;;;;5062691;28;19929;-59
2023/09/21 01:51:41;;;;;;;;;;;22.60;55.60;;;;;;5074108;28;19924;-59
2023/09/21 01:54:08;;;;;;;;;;;22.60;55.70;;;;;;5067546;28;19924;-60
2023/09/21 01:56:35;;;;;;;;;;;22.60;55.60;;;;;;5064945;28;19924;-60
2023/09/21 01:59:05;;;;;;;;;;;22.60;55.60;;;;;;5068753;28;19924;-60
2023/09/21 02:01:33;;;;;;;;;;;22.60;55.60;;;;;;5101466;28;20027;-59
2023/09/21 02:04:00;;;;;;;;;;;22.60;55.60;;;;;;5081879;28;19954;-59
2023/09/21 02:06:26;;;;;;;;;;;22.60;56.20;;;;;;5090700;28;19924;-59
2023/09/21 02:08:53;;;;;;;;;;;22.60;55.60;;;;;;5082441;28;19931;-60
2023/09/21 02:11:20;;;;;;;;;;;22.60;55.60;;;;;;5100690;28;20312;-60
2023/09/21 02:13:47;;;;;;;;;;;22.60;55.60;;;;;;5089955;28;20333;-60
2023/09/21 02:16:16;;;;;;;;;;;22.60;55.60;;;;;;5096370;28;19947;-59
2023/09/21 02:18:43;;;;;;;;;;;22.60;55.50;;;;;;5076020;28;19948;-59
2023/09/21 02:21:11;;;;;;;;;;;22.60;55.50;;;;;;5082740;28;20356;-60
2023/09/21 02:23:38;;;;;;;;;;;22.60;55.50;;;;;;5095095;28;19924;-59
2023/09/21 02:26:06;;;;;;;;;;;22.60;55.50;;;;;;5072406;28;19932;-60
2023/09/21 02:28:33;;;;;;;;;;;22.60;55.50;;;;;;5108157;28;19924;-60
2023/09/21 02:31:03;;;;;;;;;;;22.60;55.50;;;;;;5083677;28;20397;-59
2023/09/21 02:33:33;;;;;;;;;;;22.60;55.50;;;;;;5087714;28;19986;-60
2023/09/21 02:36:00;;;;;;;;;;;22.60;55.70;;;;;;5078678;28;19956;-60
2023/09/21 02:38:27;;;;;;;;;;;22.60;55.40;;;;;;5082438;28;19924;-60
2023/09/21 02:40:54;;;;;;;;;;;22.60;55.40;;;;;;5078063;28;19931;-60
2023/09/21 02:43:21;;;;;;;;;;;22.60;55.40;;;;;;5076365;28;19939;-59
2023/09/21 02:45:47;;;;;;;;;;;22.60;55.40;;;;;;5079934;28;19924;-60
2023/09/21 02:48:15;;;;;;;;;;;22.60;55.40;;;;;;5082958;28;19982;-60
2023/09/21 02:50:44;;;;;;;;;;;22.60;55.40;;;;;;5078981;28;19931;-59
2023/09/21 02:53:12;;;;;;;;;;;22.60;55.30;;;;;;5071777;28;19931;-60
2023/09/21 02:55:39;;;;;;;;;;;22.60;55.30;;;;;;5083731;28;19943;-60
2023/09/21 02:58:06;;;;;;;;;;;22.60;55.30;;;;;;5100479;28;20340;-60
2023/09/21 03:00:39;;;;;;;;;;;22.60;55.30;;;;;;5088711;28;19928;-59
2023/09/21 03:03:06;;;;;;;;;;;22.60;55.30;;;;;;5090213;28;19924;-60
2023/09/21 03:05:34;;;;;;;;;;;22.60;55.30;;;;;;5105410;28;19924;-60
2023/09/21 03:08:05;;;;;;;;;;;22.60;55.30;;;;;;5105117;28;20349;-60
2023/09/21 03:10:32;;;;;;;;;;;22.60;55.30;;;;;;5078170;28;19931;-60
2023/09/21 03:12:58;;;;;;;;;;;22.60;55.20;;;;;;5072719;28;20209;-60
2023/09/21 03:15:25;;;;;;;;;;;22.60;55.20;;;;;;5088636;28;20180;-59
2023/09/21 03:17:53;;;;;;;;;;;22.60;55.20;;;;;;5094844;28;19928;-59
2023/09/21 03:20:28;;;;;;;;;;;22.60;55.20;;;;;;5107843;28;19960;-60
2023/09/21 03:22:55;;;;;;;;;;;22.60;55.10;;;;;;5097444;28;19951;-60
2023/09/21 03:25:28;;;;;;;;;;;22.60;55.20;;;;;;5095878;28;19924;-59
2023/09/21 03:27:55;;;;;;;;;;;22.60;55.20;;;;;;5077512;28;19935;-60
2023/09/21 03:30:23;;;;;;;;;;;22.60;55.10;;;;;;5083775;28;19924;-60
2023/09/21 03:32:50;;;;;;;;;;;22.60;55.10;;;;;;5101010;28;19931;-60
2023/09/21 03:35:17;;;;;;;;;;;22.50;55.10;;;;;;5083605;28;20117;-60
2023/09/21 03:37:45;;;;;;;;;;;22.60;55.10;;;;;;5080410;28;19934;-59
2023/09/21 03:40:13;;;;;;;;;;;22.60;55.10;;;;;;5071060;28;19983;-59
2023/09/21 03:42:42;;;;;;;;;;;22.50;55.00;;;;;;5072896;28;19924;-59
2023/09/21 03:45:11;;;;;;;;;;;22.60;55.10;;;;;;5089676;28;19924;-59
2023/09/21 03:47:40;;;;;;;;;;;22.60;55.10;;;;;;5090280;28;19924;-59
2023/09/21 03:50:07;;;;;;;;;;;22.50;55.00;;;;;;5075574;28;20377;-60
2023/09/21 03:52:36;;;;;;;;;;;22.50;55.00;;;;;;5085694;28;19928;-59
2023/09/21 03:55:04;;;;;;;;;;;22.60;55.10;;;;;;5100605;28;19924;-59
2023/09/21 03:57:31;;;;;;;;;;;22.50;54.90;;;;;;5099357;28;20022;-59
2023/09/21 03:59:59;;;;;;;;;;;22.50;54.90;;;;;;5083481;28;19947;-60
2023/09/21 04:02:26;;;;;;;;;;;22.50;54.90;;;;;;5068785;28;19928;-60
2023/09/21 04:04:55;;;;;;;;;;;22.50;54.90;;;;;;5083004;28;20042;-60
2023/09/21 04:07:22;;;;;;;;;;;22.50;54.90;;;;;;5083529;28;19931;-60
2023/09/21 04:09:49;;;;;;;;;;;22.50;55.40;;;;;;5082415;28;19931;-60
2023/09/21 04:12:17;;;;;;;;;;;22.50;54.80;;;;;;5094347;28;20564;-59
2023/09/21 04:14:45;;;;;;;;;;;22.50;54.80;;;;;;5100813;28;19957;-60
2023/09/21 04:17:13;;;;;;;;;;;22.50;54.80;;;;;;5080061;28;19924;-59
2023/09/21 04:19:40;;;;;;;;;;;22.50;54.80;;;;;;5082392;28;19928;-59
2023/09/21 04:22:07;;;;;;;;;;;22.50;54.80;;;;;;5102972;28;19928;-59
2023/09/21 04:24:34;;;;;;;;;;;22.50;54.80;;;;;;5083831;28;20019;-60
2023/09/21 04:27:03;;;;;;;;;;;22.50;54.80;;;;;;5095251;28;19968;-60
2023/09/21 04:29:30;;;;;;;;;;;22.50;54.80;;;;;;5081809;28;19959;-60
2023/09/21 04:31:56;;;;;;;;;;;22.50;54.80;;;;;;5095962;28;20439;-60
2023/09/21 04:34:24;;;;;;;;;;;22.50;54.80;;;;;;5088662;28;20180;-60
2023/09/21 04:36:51;;;;;;;;;;;22.50;54.80;;;;;;5080001;28;20009;-59
2023/09/21 04:39:19;;;;;;;;;;;22.50;54.80;;;;;;5081021;28;19925;-60
2023/09/21 04:41:46;;;;;;;;;;;22.40;54.70;;;;;;5093414;28;19930;-59
2023/09/21 04:44:12;;;;;;;;;;;22.50;54.80;;;;;;5081839;28;19924;-60
2023/09/21 04:46:41;;;;;;;;;;;22.50;54.80;;;;;;5094517;28;20282;-59
2023/09/21 04:49:08;;;;;;;;;;;22.50;54.70;;;;;;5088275;28;19928;-59
2023/09/21 04:51:38;;;;;;;;;;;22.50;54.80;;;;;;5082942;28;19932;-59
2023/09/21 04:54:06;;;;;;;;;;;22.50;54.80;;;;;;5081162;28;20336;-60
2023/09/21 04:56:33;;;;;;;;;;;22.50;54.70;;;;;;5070286;28;20407;-60
2023/09/21 04:58:59;;;;;;;;;;;22.50;54.70;;;;;;5078368;28;19931;-59
2023/09/21 05:01:27;;;;;;;;;;;22.50;54.90;;;;;;5079055;28;20465;-60
2023/09/21 05:03:55;;;;;;;;;;;22.50;54.70;;;;;;5073860;28;19924;-60
2023/09/21 05:06:23;;;;;;;;;;;22.50;54.70;;;;;;5074040;28;19924;-59
2023/09/21 05:08:53;;;;;;;;;;;22.50;54.70;;;;;;5072714;28;19986;-60
2023/09/21 05:11:20;;;;;;;;;;;22.50;54.70;;;;;;5070021;28;20125;-59
2023/09/21 05:13:46;;;;;;;;;;;22.40;54.60;;;;;;5069428;28;19924;-60
2023/09/21 05:16:13;;;;;;;;;;;22.40;54.60;;;;;;5072543;28;19925;-59
2023/09/21 05:18:41;;;;;;;;;;;22.50;54.70;;;;;;5100570;28;19932;-60
2023/09/21 05:21:07;;;;;;;;;;;22.40;54.60;;;;;;5067891;28;19928;-59
2023/09/21 05:23:36;;;;;;;;;;;22.50;54.70;;;;;;5070428;28;19956;-60
2023/09/21 05:26:04;;;;;;;;;;;22.50;54.70;;;;;;5069656;28;19929;-60
2023/09/21 05:28:31;;;;;;;;;;;22.40;54.50;;;;;;5070700;28;19974;-59
2023/09/21 05:30:57;;;;;;;;;;;22.40;54.50;;;;;;5070378;28;20416;-60
2023/09/21 05:33:24;;;;;;;;;;;22.40;54.50;;;;;;5090525;28;19931;-59
2023/09/21 05:35:55;;;;;;;;;;;22.40;54.50;;;;;;5073687;28;20383;-60
2023/09/21 05:38:22;;;;;;;;;;;22.40;54.50;;;;;;5087255;28;19920;-60
2023/09/21 05:40:48;;;;;;;;;;;22.40;54.50;;;;;;5092931;28;19930;-60
2023/09/21 05:43:17;;;;;;;;;;;22.40;54.50;;;;;;5085485;28;19932;-60
2023/09/21 05:45:44;;;;;;;;;;;22.50;54.60;;;;;;5077247;28;19924;-60
2023/09/21 05:48:15;;;;;;;;;;;22.50;54.60;;;;;;5077673;28;19935;-60
2023/09/21 05:50:42;;;;;;;;;;;22.40;54.50;;;;;;5080532;28;19963;-60
2023/09/21 05:53:09;;;;;;;;;;;22.50;54.60;;;;;;5071729;28;19955;-60
2023/09/21 05:55:36;;;;;;;;;;;22.50;54.60;;;;;;5079228;28;20035;-59
2023/09/21 05:58:05;;;;;;;;;;;22.50;54.70;;;;;;5070521;28;19924;-60
2023/09/21 06:00:33;;;;;;;;;;;22.50;54.60;;;;;;5065353;28;19967;-60
2023/09/21 06:03:00;;;;;;;;;;;22.50;54.60;;;;;;5060027;28;19920;-60
2023/09/21 06:05:27;;;;;;;;;;;22.50;54.60;;;;;;5061307;28;20023;-59
2023/09/21 06:07:54;;;;;;;;;;;22.50;54.60;;;;;;5069376;28;19974;-60
2023/09/21 06:10:21;;;;;;;;;;;22.50;54.60;;;;;;5072705;28;20022;-59
2023/09/21 06:12:48;;;;;;;;;;;22.50;54.60;;;;;;5058542;28;19929;-59
2023/09/21 06:15:15;;;;;;;;;;;22.50;54.60;;;;;;5052906;28;19928;-60
2023/09/21 06:17:43;;;;;;;;;;;22.50;54.60;;;;;;5064191;28;19985;-60
2023/09/21 06:20:11;;;;;;;;;;;22.50;54.60;;;;;;5064390;28;19924;-60
2023/09/21 06:22:38;;;;;;;;;;;22.40;54.40;;;;;;5064637;28;19929;-59
2023/09/21 06:25:06;;;;;;;;;;;22.50;54.50;;;;;;5072411;28;19946;-60
2023/09/21 06:27:33;;;;;;;;;;;22.50;54.50;;;;;;5056811;28;19931;-59
2023/09/21 06:29:59;;;;;;;;;;;22.40;54.40;;;;;;5089441;28;19928;-60
2023/09/21 06:32:26;;;;;;;;;;;22.50;54.50;;;;;;5056633;28;19925;-60
2023/09/21 06:34:55;;;;;;;;;;;22.50;54.50;;;;;;5056502;28;19924;-59
2023/09/21 06:37:22;;;;;;;;;;;22.40;54.40;;;;;;5073614;28;19924;-60
2023/09/21 06:39:49;;;;;;;;;;;22.50;54.50;;;;;;5055532;28;19925;-60
2023/09/21 06:42:16;;;;;;;;;;;22.40;54.50;;;;;;5055289;28;19924;-59
2023/09/21 06:44:43;;;;;;;;;;;22.50;54.60;;;;;;5069662;28;19951;-59
2023/09/21 06:47:11;;;;;;;;;;;22.50;54.60;;;;;;5084485;28;19982;-60
2023/09/21 06:49:37;;;;;;;;;;;22.40;54.50;;;;;;5058555;28;19935;-60
2023/09/21 06:52:06;;;;;;;;;;;22.50;54.60;;;;;;5072551;28;19928;-60
2023/09/21 06:54:33;;;;;;;;;;;22.50;54.60;;;;;;5062881;28;20054;-59
2023/09/21 06:57:04;;;;;;;;;;;22.50;54.60;;;;;;5063975;28;19997;-60
2023/09/21 06:59:34;;;;;;;;;;;22.50;54.60;;;;;;5064454;28;19928;-60
2023/09/21 07:02:00;;;;;;;;;;;22.40;54.50;;;;;;5079748;28;19971;-58
2023/09/21 07:04:28;;;;;;;;;;;22.50;54.70;;;;;;5071271;28;20328;-60
2023/09/21 07:06:54;;;;;;;;;;;22.50;54.60;;;;;;5061733;28;19940;-60
2023/09/21 07:09:23;;;;;;;;;;;22.50;54.60;;;;;;5062461;28;21603;-60
2023/09/21 07:11:50;;;;;;;;;;;22.40;54.50;;;;;;5056075;28;19925;-60
2023/09/21 07:14:17;;;;;;;;;;;22.50;54.60;;;;;;5082845;28;19938;-60
2023/09/21 07:16:43;;;;;;;;;;;22.50;54.60;;;;;;5061628;28;19928;-58
2023/09/21 07:19:11;;;;;;;;;;;22.50;54.60;;;;;;5056658;28;20387;-59
2023/09/21 07:21:38;;;;;;;;;;;22.50;54.60;;;;;;5085751;28;19935;-59
2023/09/21 07:24:07;;;;;;;;;;;22.50;54.60;;;;;;5066456;28;19946;-59
2023/09/21 07:26:35;;;;;;;;;;;22.50;54.60;;;;;;5086061;28;19924;-60
2023/09/21 07:29:04;;;;;;;;;;;22.50;54.60;;;;;;5067081;28;19924;-61
2023/09/21 07:31:33;;;;;;;;;;;22.50;54.60;;;;;;5081654;28;19935;-59
2023/09/21 07:33:59;;;;;;;;;;;22.50;55.20;;;;;;5055863;28;20007;-60
2023/09/21 07:36:26;;;;;;;;;;;22.50;54.60;;;;;;5067070;28;19927;-61
2023/09/21 07:38:53;;;;;;;;;;;22.50;54.60;;;;;;5092559;28;19932;-60
2023/09/21 07:41:20;;;;;;;;;;;22.50;54.60;;;;;;5055476;28;19970;-58
2023/09/21 07:43:49;;;;;;;;;;;22.50;54.60;;;;;;5078374;28;19977;-60
2023/09/21 07:46:15;;;;;;;;;;;22.50;54.60;;;;;;5081332;28;19928;-59
2023/09/21 07:48:42;;;;;;;;;;;22.50;54.60;;;;;;5060602;28;20276;-59
2023/09/21 07:51:09;;;;;;;;;;;22.50;54.70;;;;;;5073137;28;19928;-59
2023/09/21 07:53:36;;;;;;;;;;;22.50;54.70;;;;;;5073095;28;19924;-60
2023/09/21 07:56:04;;;;;;;;;;;22.50;54.70;;;;;;5053700;28;19943;-58
2023/09/21 07:58:31;;;;;;;;;;;22.50;54.70;;;;;;5070492;28;20380;-60
2023/09/21 08:00:59;;;;;;;;;;;22.50;54.70;;;;;;5054213;28;19931;-60
2023/09/21 08:03:26;;;;;;;;;;;22.50;54.70;;;;;;5048313;28;19950;-60
2023/09/21 08:05:53;;;;;;;;;;;22.50;54.70;;;;;;5079343;28;20549;-59
2023/09/21 08:08:20;;;;;;;;;;;22.50;54.70;;;;;;5063388;28;20382;-60
2023/09/21 08:10:47;;;;;;;;;;;22.50;54.70;;;;;;5062342;28;19924;-59
2023/09/21 08:13:14;;;;;;;;;;;22.50;54.70;;;;;;5072210;28;19921;-59
2023/09/21 08:15:42;;;;;;;;;;;22.50;54.80;;;;;;5092242;28;19924;-59
2023/09/21 08:18:11;;;;;;;;;;;22.60;54.80;;;;;;5067710;28;19929;-61
2023/09/21 08:20:39;;;;;;;;;;;22.60;54.80;;;;;;5071989;28;19924;-59
2023/09/21 08:23:06;;;;;;;;;;;22.60;54.80;;;;;;5070966;28;19928;-59
2023/09/21 08:25:33;;;;;;;;;;;22.50;54.80;;;;;;5060811;28;19924;-60
2023/09/21 08:28:00;;;;;;;;;;;22.50;54.80;;;;;;5074261;28;19939;-59
2023/09/21 08:30:27;;;;;;;;;;;22.50;54.80;;;;;;5054376;28;20433;-60
2023/09/21 08:32:53;;;;;;;;;;;22.50;54.80;;;;;;5062164;28;19924;-59
2023/09/21 08:35:22;;;;;;;;;;;22.60;54.90;;;;;;5064882;28;19935;-60
2023/09/21 08:37:50;;;;;;;;;;;22.60;54.90;;;;;;5058830;28;20366;-60
2023/09/21 08:40:17;;;;;;;;;;;22.60;54.90;;;;;;5069999;28;19972;-61
2023/09/21 08:42:45;;;;;;;;;;;22.60;54.90;;;;;;5075282;28;19950;-61
2023/09/21 08:45:12;;;;;;;;;;;22.50;54.80;;;;;;5070059;28;19946;-61
2023/09/21 08:47:39;;;;;;;;;;;22.60;54.90;;;;;;5061819;28;19924;-61
2023/09/21 08:50:07;;;;;;;;;;;22.60;54.90;;;;;;5087272;28;19924;-60
2023/09/21 08:52:35;;;;;;;;;;;22.60;54.90;;;;;;5061238;28;20003;-60
2023/09/21 08:55:02;;;;;;;;;;;22.60;54.90;;;;;;5061419;28;19934;-60
2023/09/21 08:57:30;;;;;;;;;;;22.60;55.50;;;;;;5086656;28;19939;-60
2023/09/21 08:59:57;;;;;;;;;;;22.60;54.90;;;;;;5078387;28;19925;-60
2023/09/21 09:02:24;;;;;;;;;;;22.60;54.90;;;;;;5061811;28;19940;-60
2023/09/21 09:04:51;;;;;;;;;;;22.60;54.90;;;;;;5068572;28;19924;-61
2023/09/21 09:07:18;;;;;;;;;;;22.60;54.90;;;;;;5062522;28;20163;-60
2023/09/21 09:09:47;;;;;;;;;;;22.60;54.90;;;;;;5078225;28;19971;-60
2023/09/21 09:12:30;;;;;;;;;;;22.60;54.90;;;;;;5079888;28;19924;-61
2023/09/21 09:14:57;;;;;;;;;;;22.60;54.90;;;;;;5063433;28;19925;-60
2023/09/21 09:17:29;;;;;;;;;;;22.60;55.00;;;;;;5078078;28;20299;-61
2023/09/21 09:19:57;;;;;;;;;;;22.60;54.90;;;;;;5068827;28;19928;-61
2023/09/21 09:22:24;;;;;;;;;;;22.60;54.90;;;;;;5053473;28;19947;-60
2023/09/21 09:24:53;;;;;;;;;;;22.60;54.90;;;;;;5086054;28;19973;-61
2023/09/21 09:27:20;;;;;;;;;;;22.60;55.00;;;;;;5071747;28;19978;-61
2023/09/21 09:29:47;;;;;;;;;;;22.60;54.90;;;;;;5068186;28;19969;-61
2023/09/21 09:32:14;;;;;;;;;;;22.60;55.50;;;;;;5072249;28;20427;-61
2023/09/21 09:34:41;;;;;;;;;;;22.70;55.00;;;;;;5061409;28;19924;-60
2023/09/21 09:37:12;;;;;;;;;;;22.70;55.00;;;;;;5077544;28;19924;-61
2023/09/21 09:39:40;;;;;;;;;;;22.60;54.90;;;;;;5057806;28;19928;-61
2023/09/21 09:42:08;;;;;;;;;;;22.70;55.00;;;;;;5071655;28;19928;-60
2023/09/21 09:44:35;;;;;;;;;;;22.60;54.90;;;;;;5065435;28;20597;-61
2023/09/21 09:47:03;;;;;;;;;;;22.60;54.90;;;;;;5055495;28;19979;-61
2023/09/21 09:49:30;;;;;;;;;;;22.60;55.00;;;;;;5073231;28;20438;-61
2023/09/21 09:51:59;;;;;;;;;;;22.70;55.10;;;;;;5077874;28;20407;-61
2023/09/21 09:54:26;;;;;;;;;;;22.70;55.00;;;;;;5081989;28;19958;-61
2023/09/21 09:56:53;;;;;;;;;;;22.70;55.00;;;;;;5089435;28;19924;-61
2023/09/21 09:59:23;;;;;;;;;;;22.70;55.10;;;;;;5079092;28;19929;-61
2023/09/21 10:01:50;;;;;;;;;;;22.70;55.10;;;;;;5091997;28;19928;-60
2023/09/21 10:04:18;;;;;;;;;;;22.70;55.10;;;;;;5092371;28;19924;-61
2023/09/21 10:06:45;;;;;;;;;;;22.70;55.00;;;;;;5084853;28;19962;-59
2023/09/21 10:09:13;;;;;;;;;;;22.70;55.10;;;;;;5092721;28;19924;-58
2023/09/21 10:11:42;;;;;;;;;;;22.70;55.10;;;;;;5096410;28;20457;-59
2023/09/21 10:14:11;;;;;;;;;;;22.70;55.10;;;;;;5089503;28;19932;-60
2023/09/21 10:16:39;;;;;;;;;;;22.70;55.00;;;;;;5098240;28;19924;-60
2023/09/21 10:19:10;;;;;;;;;;;22.70;55.10;;;;;;5072907;28;19924;-60
2023/09/21 10:21:38;;;;;;;;;;;22.70;55.00;;;;;;5096725;28;19931;-59
2023/09/21 10:24:06;;;;;;;;;;;22.70;55.10;;;;;;5099261;28;19925;-61
2023/09/21 10:26:38;;;;;;;;;;;22.70;55.00;;;;;;5089344;28;19982;-60
2023/09/21 10:29:06;;;;;;;;;;;22.70;55.00;;;;;;5073215;28;20015;-60
2023/09/21 10:31:34;;;;;;;;;;;22.70;55.00;;;;;;5073613;28;19924;-60
2023/09/21 10:34:13;;;;;;;;;;;22.80;55.10;;;;;;5072036;28;19929;-61
2023/09/21 10:36:45;;;;;;;;;;;22.70;55.00;;;;;;5089790;28;20497;-60
2023/09/21 10:39:24;;;;;;;;;;;22.70;55.00;;;;;;5074883;28;19978;-60
2023/09/21 10:41:51;;;;;;;;;;;22.80;55.00;;;;;;5085175;28;19928;-60
2023/09/21 10:44:33;;;;;;;;;;;22.80;55.00;;;;;;5099789;28;19924;-60
2023/09/21 10:47:00;;;;;;;;;;;22.70;55.00;;;;;;5091375;28;19935;-60
2023/09/21 10:49:28;;;;;;;;;;;22.70;55.00;;;;;;5092237;28;19974;-60
2023/09/21 10:51:55;;;;;;;;;;;22.80;55.00;;;;;;5101009;28;19934;-60
2023/09/21 10:54:22;;;;;;;;;;;22.80;55.00;;;;;;5076827;28;19931;-60
2023/09/21 10:56:49;;;;;;;;;;;22.80;55.00;;;;;;5104631;28;19932;-60
2023/09/21 10:59:15;;;;;;;;;;;22.80;55.00;;;;;;5098937;28;19935;-60
2023/09/21 11:01:42;;;;;;;;;;;22.80;55.00;;;;;;5086602;28;19924;-60
2023/09/21 11:04:10;;;;;;;;;;;22.80;55.00;;;;;;5075385;28;20010;-60
2023/09/21 11:06:39;;;;;;;;;;;22.80;55.00;;;;;;5101656;28;19976;-60
2023/09/21 11:09:07;;;;;;;;;;;22.80;55.00;;;;;;5083362;28;19975;-60
2023/09/21 11:11:35;;;;;;;;;;;22.80;55.00;;;;;;5076707;28;19950;-60
2023/09/21 11:14:05;;;;;;;;;;;22.80;55.00;;;;;;5080732;28;19924;-60
2023/09/21 11:16:32;;;;;;;;;;;22.80;55.00;;;;;;5081723;28;19924;-60
2023/09/21 11:18:59;;;;;;;;;;;22.80;55.00;;;;;;5055517;28;19947;-60
2023/09/21 11:21:26;;;;;;;;;;;22.80;55.00;;;;;;5083782;28;19924;-60
2023/09/21 11:23:54;;;;;;;;;;;22.90;55.10;;;;;;5091487;28;20019;-60
2023/09/21 11:26:22;;;;;;;;;;;22.80;55.00;;;;;;5097235;28;19937;-60
2023/09/21 11:28:57;;;;;;;;;;;22.90;55.10;;;;;;5077597;28;19931;-60
2023/09/21 11:31:23;;;;;;;;;;;22.90;55.10;;;;;;5091876;28;19932;-60
2023/09/21 11:33:50;;;;;;;;;;;22.90;55.20;;;;;;5091275;28;19924;-60
2023/09/21 11:36:18;;;;;;;;;;;22.90;55.20;;;;;;5080799;28;19924;-60
2023/09/21 11:38:44;;;;;;;;;;;22.90;55.20;;;;;;5080390;28;19931;-61
2023/09/21 11:41:12;;;;;;;;;;;22.90;55.20;;;;;;5103324;28;19932;-59
2023/09/21 11:43:39;;;;;;;;;;;22.90;55.20;;;;;;5094660;28;20367;-60
2023/09/21 11:46:07;;;;;;;;;;;22.90;55.20;;;;;;5087921;28;20289;-60
2023/09/21 11:48:33;;;;;;;;;;;22.90;55.20;;;;;;5100427;28;19971;-59
2023/09/21 11:51:04;;;;;;;;;;;22.90;55.20;;;;;;5087087;28;19928;-59
2023/09/21 11:53:31;;;;;;;;;;;22.90;55.80;;;;;;5071412;28;19928;-60
2023/09/21 11:55:58;;;;;;;;;;;22.90;55.20;;;;;;5078900;28;19989;-58
2023/09/21 11:58:27;;;;;;;;;;;22.90;55.30;;;;;;5090583;28;19931;-60
2023/09/21 12:01:15;;;;;;;;;;;22.90;55.30;;;;;;5073338;28;19929;-59
2023/09/21 12:03:41;;;;;;;;;;;22.90;55.30;;;;;;5063848;28;19974;-60
2023/09/21 12:06:07;;;;;;;;;;;22.90;55.90;;;;;;5079503;28;19932;-60
2023/09/21 12:08:34;;;;;;;;;;;22.90;55.40;;;;;;5070842;28;19924;-59
2023/09/21 12:11:01;;;;;;;;;;;22.90;55.40;;;;;;5086350;28;20026;-59
2023/09/21 12:13:29;;;;;;;;;;;23.00;55.40;;;;;;5107487;28;19924;-60
2023/09/21 12:15:56;;;;;;;;;;;22.90;55.40;;;;;;5082467;28;19935;-61
2023/09/21 12:18:23;;;;;;;;;;;22.90;55.40;;;;;;5079675;28;19929;-60
2023/09/21 12:20:56;;;;;;;;;;;23.00;55.50;;;;;;5086526;28;19924;-60
2023/09/21 12:23:23;;;;;;;;;;;22.90;55.50;;;;;;5073342;28;19924;-61
2023/09/21 12:25:50;;;;;;;;;;;22.90;55.60;;;;;;5081903;28;19950;-60
2023/09/21 12:28:19;;;;;;;;;;;23.00;55.70;;;;;;5079425;28;19924;-59
2023/09/21 12:30:48;;;;;;;;;;;23.00;55.70;;;;;;5087242;28;19931;-59
2023/09/21 12:33:15;;;;;;;;;;;23.00;56.40;;;;;;5081520;28;19956;-59
2023/09/21 12:35:42;;;;;;;;;;;23.00;55.80;;;;;;5082520;28;19996;-59
2023/09/21 12:38:10;;;;;;;;;;;23.00;55.70;;;;;;5091043;28;19924;-59
2023/09/21 12:40:37;;;;;;;;;;;23.00;55.70;;;;;;5078249;28;19928;-59
2023/09/21 12:43:05;;;;;;;;;;;23.00;55.80;;;;;;5088627;28;20039;-59
2023/09/21 12:45:33;;;;;;;;;;;23.00;55.70;;;;;;5083960;28;19934;-59
2023/09/21 12:48:02;;;;;;;;;;;23.00;55.70;;;;;;5073878;28;19925;-60
2023/09/21 12:50:29;;;;;;;;;;;23.00;55.80;;;;;;5066852;28;19924;-60
2023/09/21 12:52:56;;;;;;;;;;;23.00;55.70;;;;;;5073731;28;20290;-60
2023/09/21 12:55:23;;;;;;;;;;;23.00;55.80;;;;;;5088888;28;19978;-60
2023/09/21 12:57:50;;;;;;;;;;;23.00;55.70;;;;;;5074664;28;19924;-61
2023/09/21 13:00:22;;;;;;;;;;;23.10;55.80;;;;;;5071543;28;19925;-60
2023/09/21 13:02:48;;;;;;;;;;;23.00;55.80;;;;;;5083920;28;19924;-60
2023/09/21 13:05:17;;;;;;;;;;;23.00;55.80;;;;;;5073626;28;20201;-61
2023/09/21 13:07:44;;;;;;;;;;;23.00;55.90;;;;;;5081742;28;19974;-61
2023/09/21 13:10:11;;;;;;;;;;;23.00;55.80;;;;;;5083058;28;19931;-58
2023/09/21 13:12:39;;;;;;;;;;;23.10;56.40;;;;;;5083726;28;19970;-59
2023/09/21 13:15:06;;;;;;;;;;;23.00;55.80;;;;;;5093334;28;19963;-61
2023/09/21 13:17:33;;;;;;;;;;;23.00;55.80;;;;;;5082049;28;19924;-60
2023/09/21 13:20:00;;;;;;;;;;;23.00;55.80;;;;;;5074026;28;20453;-60
2023/09/21 13:22:28;;;;;;;;;;;23.10;55.90;;;;;;5086718;28;19936;-60
2023/09/21 13:24:57;;;;;;;;;;;23.00;55.80;;;;;;5081858;28;19997;-59
2023/09/21 13:27:24;;;;;;;;;;;23.10;55.90;;;;;;5086666;28;19925;-60
2023/09/21 13:29:51;;;;;;;;;;;23.00;55.80;;;;;;5103700;28;19936;-60
2023/09/21 13:32:19;;;;;;;;;;;23.00;55.80;;;;;;5077659;28;19963;-60
2023/09/21 13:34:46;;;;;;;;;;;23.00;55.80;;;;;;5081942;28;19931;-60
2023/09/21 13:37:13;;;;;;;;;;;23.10;56.00;;;;;;5081705;28;20015;-59
2023/09/21 13:39:42;;;;;;;;;;;23.00;55.90;;;;;;5082962;28;20031;-60
2023/09/21 13:42:09;;;;;;;;;;;23.00;55.90;;;;;;5081885;28;20378;-60
2023/09/21 13:44:36;;;;;;;;;;;23.00;55.90;;;;;;5078418;28;19924;-60
2023/09/21 13:47:04;;;;;;;;;;;23.10;56.10;;;;;;5082190;28;19924;-60
2023/09/21 13:49:33;;;;;;;;;;;23.10;56.00;;;;;;5077989;28;19928;-60
2023/09/21 13:52:00;;;;;;;;;;;23.00;56.00;;;;;;5082332;28;19931;-60
2023/09/21 13:54:27;;;;;;;;;;;23.00;55.90;;;;;;5076522;28;19920;-61
2023/09/21 13:56:55;;;;;;;;;;;23.10;56.10;;;;;;5091088;28;19924;-60
2023/09/21 13:59:22;;;;;;;;;;;23.00;56.00;;;;;;5098286;28;19932;-60
2023/09/21 14:01:48;;;;;;;;;;;23.00;55.90;;;;;;5082200;28;19925;-60
2023/09/21 14:04:15;;;;;;;;;;;23.10;56.10;;;;;;5097914;28;20370;-60
2023/09/21 14:06:42;;;;;;;;;;;23.10;56.10;;;;;;5081507;28;20140;-60
2023/09/21 14:09:09;;;;;;;;;;;23.00;56.00;;;;;;5091187;28;19931;-60
2023/09/21 14:11:36;;;;;;;;;;;23.10;56.10;;;;;;5107607;28;19924;-60
2023/09/21 14:14:05;;;;;;;;;;;23.00;56.00;;;;;;5084404;28;19928;-60
2023/09/21 14:16:32;;;;;;;;;;;23.00;56.00;;;;;;5106652;28;19928;-60
2023/09/21 14:18:59;;;;;;;;;;;23.00;56.00;;;;;;5098432;28;20328;-60